AirNav   Everest Fuels
 
 1108 users online  

D41 Stephen Municipal Airport
Stephen, Minnesota, USA

GOING TO STEPHEN?


FAA INFORMATION EFFECTIVE 08 SEPTEMBER 2022

Location

FAA Identifier: D41
Lat/Long: 48-27-29.9240N 096-51-46.2200W
48-27.498733N 096-51.770333W
48.4583122,-96.8628389
(estimated)
Elevation: 830 ft. / 253 m (estimated)
Variation: 06E (1985)
From city: 1 mile NE of STEPHEN, MN
Time zone: UTC -5 (UTC -6 during Standard Time)
Zip code: 56757

Airport Operations

Airport use: Open to the public
Activation date: 07/1952
Control tower: no
ARTCC: MINNEAPOLIS CENTER
FSS: PRINCETON FLIGHT SERVICE STATION
NOTAMs facility: PNM (NOTAM-D service available)
Attendance: MON-FRI DAYLIGHT HOURS
Pattern altitude: 1630 ft. MSL
Wind indicator: lighted
Segmented circle: no
Lights: SS-SR
Beacon: white-green (lighted land airport)
Operates sunset to sunrise.

Airport Communications

CTAF/UNICOM: 122.7
WX AWOS-3 at HCO (18 nm N): 126.475 (218-843-2415)

Nearby radio navigation aids

VOR radial/distance  VOR name  Freq  Var
GFKr014/32.8GRAND FORKS VOR/DME114.3009E
TVFr303/35.7THIEF RIVER FALLS VOR/DME114.4508E

Airport Services

Fuel available: 100LL
100LL:FUEL AVBL UPON PRIOR REQ.
Parking: hangars and tiedowns

Runway Information

Runway 17/35

Dimensions: 2700 x 60 ft. / 823 x 18 m
Surface: asphalt, in fair condition
Runway edge lights: low intensity
RUNWAY 17  RUNWAY 35
Latitude: 48-27.878333N48-27.435500N
Longitude: 096-51.969833W096-51.920667W
Elevation: 830.0 ft.830.0 ft.
Traffic pattern: leftleft
Markings: basic, in good conditionbasic, in good condition
Runway end identifier lights: nono
Obstructions: none17 ft. road, 482 ft. from runway, 16:1 slope to clear

Airport Ownership and Management from official FAA records

Ownership: Publicly-owned
Owner: CITY OF STEPHEN
424 FIFTH ST., PO BOX 630
STEPHEN, MN 56757
Phone 218-478-3614
Manager: KIRK LARSON
40214 380TH ST. NW, PO BOX 139
STEPHEN, MN 56757
Phone 218-478-2247

Airport Operational Statistics

Aircraft based on the field: 11
Single engine airplanes: 11
    
Aircraft operations: avg 41/day *
79% local general aviation
20% transient general aviation
<1% air taxi
* for 12-month period ending 31 May 2018

Additional Remarks

ANTENNA 1.85 SM SE, 1,258 FT MSL (418 FT AGL)
FOR CD CTC MINNEAPOLIS ARTCC AT 651-463-5588.

Instrument Procedures

There are no published instrument procedures at D41.

Some nearby airports with instrument procedures:

D37 - Warren Municipal Airport (17 nm S)
KHCO - Hallock Municipal Airport (18 nm N)
KGAF - Hutson Field Airport (20 nm W)
KPMB - Pembina Municipal Airport (33 nm NW)
KGFK - Grand Forks International Airport (33 nm S)
 
Loc | Ops | Rwys | IFR | FBO | Links
Com | Nav | Svcs | Stats | Notes
Area around D41 (Stephen Municipal Airport)
 
Road maps at: MapQuest Bing Google
 
Aerial photo
No photo
 
Sectional chart

 
Airport distance calculator
Flying to Stephen Municipal Airport? Find the distance to fly.

From to D41

Sunrise and sunset
Times for 25-Sep-2022
 Local
(UTC-5)
 Zulu
(UTC)
Morning civil twilight06:4811:48
Sunrise07:1912:19
Sunset19:1900:19
Evening civil twilight19:5000:50

Current date and time
Zulu (UTC)  25-Sep-2022 21:32:46
Local (UTC-5)  25-Sep-2022 16:32:46
 
METAR
KHCO 
18nm N 
252115Z AUTO 32020G25KT 10SM SCT070 17/02 A3000 RMK AO2 LTG DSNT E
KGAF 
20nm W 
252115Z AUTO 33019G28KT 9SM CLR 18/00 A3003 RMK AO2
KGFK 
33nm SW 
252053Z 34021G33KT 10SM SCT070 20/03 A3001 RMK AO2 PK WND 34033/2045 SLP165 T02000033 55002
TAF
KGFK 
33nm SW 
251720Z 2518/2618 33020G30KT P6SM FEW030 FM252200 33012KT P6SM FEW250 FM260200 32006KT P6SM SCT250
KTVF 
36nm SE 
251720Z 2518/2618 33019G29KT P6SM SCT030 FM252300 33012KT P6SM FEW250 FM260200 32006KT P6SM FEW250
KRDR 
36nm SW 
251800Z 2518/2624 33020G35KT 9999 SCT050 510003 QNH3002INS BECMG 2523/2524 33012KT 9999 SCT060 QNH3006INS TX20/2520Z TN03/2612Z
NOTAMs
Click for the latest NOTAMs
NOTAMs are issued by the DoD/FAA and will open in a separate window not controlled by AirNav.

 

 
 

Would you like to see your business listed on this page?

 If your business provides an interesting product or service to pilots, flight crews, aircraft, or users of the Stephen Municipal Airport, you should consider listing it here.  To start the listing process, click on the button below
 
Add a business
 

Other Pages about Stephen Municipal Airport

Update a link
 
Copyright © AirNav, LLC. All rights reserved. Privacy Policy  Contact